Time;durP1;ratioP1;P1;durP2;ratioP2;P2;SDS_P1;SDS_P2;PMS_P1;PMS_P2;Temp;Humidity;BMP_temperature;BMP_pressure;BME280_temperature;BME280_humidity;BME280_pressure;Samples;Min_cycle;Max_cycle;Signal;HPM_P1;HPM_P2
2022/11/25 00:01:20;;;;;;;13.13;4.22;;;7.30;99.90;;;;;;7380742;19;20029;-44
2022/11/25 00:03:47;;;;;;;12.20;4.38;;;7.30;99.90;;;;;;7379192;19;20078;-46
2022/11/25 00:06:20;;;;;;;14.15;4.07;;;7.40;99.90;;;;;;7377381;19;20022;-47
2022/11/25 00:08:48;;;;;;;15.85;4.57;;;7.40;99.90;;;;;;7380012;19;20620;-45
2022/11/25 00:11:16;;;;;;;11.23;4.43;;;7.40;99.90;;;;;;7376852;19;20014;-45
2022/11/25 00:13:43;;;;;;;13.93;4.38;;;7.40;99.90;;;;;;7379079;19;20017;-45
2022/11/25 00:16:12;;;;;;;14.77;4.97;;;7.40;99.90;;;;;;7374770;19;20038;-45
2022/11/25 00:18:44;;;;;;;15.10;4.18;;;7.40;99.90;;;;;;7380924;19;20022;-49
2022/11/25 00:21:12;;;;;;;;;;;7.40;99.90;;;;;;7380236;19;21547;-49
2022/11/25 00:23:38;;;;;;;11.48;3.88;;;7.50;99.90;;;;;;7377234;19;20347;-45
2022/11/25 00:26:11;;;;;;;14.88;4.90;;;7.50;99.90;;;;;;7377479;19;20081;-46
2022/11/25 00:28:38;;;;;;;14.25;4.97;;;7.50;99.90;;;;;;7378684;19;20018;-49
2022/11/25 00:31:13;;;;;;;14.57;4.05;;;7.50;99.90;;;;;;7377425;19;20429;-47
2022/11/25 00:33:40;;;;;;;12.35;4.07;;;7.50;99.90;;;;;;7367833;19;20022;-43
2022/11/25 00:36:31;;;;;;;20.35;4.47;;;7.50;99.90;;;;;;7371648;19;20026;-46
2022/11/25 00:39:01;;;;;;;17.33;4.35;;;7.60;99.90;;;;;;7368219;19;20045;-44
2022/11/25 00:44:34;;;;;;;10.88;4.05;;;7.60;99.90;;;;;;7372630;19;20698;-44
2022/11/25 00:47:09;;;;;;;16.80;5.15;;;7.60;99.90;;;;;;7364948;19;20062;-47
2022/11/25 00:49:37;;;;;;;16.13;4.45;;;7.60;99.90;;;;;;7368468;19;20022;-48
2022/11/25 00:52:04;;;;;;;16.25;4.43;;;7.60;99.90;;;;;;7364520;19;20028;-45
2022/11/25 00:54:31;;;;;;;15.80;4.22;;;7.70;99.90;;;;;;7366459;19;20486;-45
2022/11/25 00:56:58;;;;;;;15.85;5.18;;;7.60;99.90;;;;;;7366706;19;20038;-46
2022/11/25 00:59:24;;;;;;;12.93;4.05;;;7.60;99.90;;;;;;7366340;19;20042;-46
2022/11/25 01:01:51;;;;;;;10.95;3.53;;;7.60;99.90;;;;;;7367181;19;20014;-45
2022/11/25 01:04:17;;;;;;;20.23;6.50;;;7.60;99.90;;;;;;7366778;19;20023;-45
2022/11/25 01:06:43;;;;;;;15.02;5.22;;;7.60;99.90;;;;;;7364385;19;20015;-45
2022/11/25 01:09:11;;;;;;;21.33;5.00;;;7.70;99.90;;;;;;7368074;19;20057;-50
2022/11/25 01:11:38;;;;;;;18.52;4.35;;;7.60;99.90;;;;;;7365675;19;20010;-47
2022/11/25 01:14:05;;;;;;;17.65;4.47;;;7.60;99.90;;;;;;7363280;19;20026;-44
2022/11/25 01:16:31;;;;;;;16.42;3.90;;;7.60;99.90;;;;;;7362918;19;20136;-47
2022/11/25 01:18:59;;;;;;;13.20;3.92;;;7.60;99.90;;;;;;7367619;19;20421;-44
2022/11/25 01:21:28;;;;;;;14.13;4.70;;;7.60;99.90;;;;;;7366411;19;20509;-50
2022/11/25 01:23:54;;;;;;;15.85;3.78;;;7.60;99.90;;;;;;7369296;19;20508;-44
2022/11/25 01:26:23;;;;;;;18.02;4.50;;;7.70;99.90;;;;;;7363321;19;20023;-45
2022/11/25 01:28:55;;;;;;;14.95;4.25;;;7.60;99.90;;;;;;7367178;19;20014;-46
2022/11/25 01:31:23;;;;;;;19.15;5.05;;;7.60;99.90;;;;;;7363242;19;21365;-47
2022/11/25 01:34:13;;;;;;;16.33;4.90;;;7.70;99.90;;;;;;7365831;19;20438;-46
2022/11/25 01:36:40;;;;;;;12.48;4.00;;;7.70;99.90;;;;;;7365993;19;20393;-47
2022/11/25 01:39:07;;;;;;;13.48;3.72;;;7.70;99.90;;;;;;7366316;19;20482;-46
2022/11/25 01:41:34;;;;;;;11.40;3.22;;;7.70;99.90;;;;;;7367328;19;20018;-47
2022/11/25 01:44:14;;;;;;;13.50;4.32;;;7.70;99.90;;;;;;7367525;19;20022;-48
2022/11/25 01:46:59;;;;;;;13.95;4.03;;;7.80;99.90;;;;;;7364446;19;20470;-45
2022/11/25 01:49:42;;;;;;;11.85;3.95;;;7.80;99.90;;;;;;7364696;19;20487;-45
2022/11/25 01:52:15;;;;;;;14.93;3.30;;;7.80;99.90;;;;;;7371517;19;20032;-45
2022/11/25 01:55:01;;;;;;;15.10;4.03;;;7.80;99.90;;;;;;7378831;19;20498;-45
2022/11/25 01:57:33;;;;;;;12.85;3.58;;;7.90;99.90;;;;;;7383283;19;20010;-46
2022/11/25 02:00:04;;;;;;;16.50;4.63;;;7.80;99.90;;;;;;7380050;19;20015;-47
2022/11/25 02:02:44;;;;;;;20.85;5.40;;;7.80;99.90;;;;;;7382999;19;20038;-45
2022/11/25 02:05:13;;;;;;;15.00;5.43;;;7.80;99.90;;;;;;7381188;19;20018;-46
2022/11/25 02:07:43;;;;;;;11.95;4.25;;;7.80;99.90;;;;;;7383634;19;20014;-47
2022/11/25 02:10:13;;;;;;;14.45;4.93;;;7.70;99.90;;;;;;7384789;19;20023;-46
2022/11/25 02:12:44;;;;;;;17.40;4.97;;;7.70;99.90;;;;;;7386188;19;20015;-46
2022/11/25 02:15:12;;;;;;;15.63;5.65;;;7.70;99.90;;;;;;7392934;19;20681;-46
2022/11/25 02:17:39;;;;;;;15.25;4.50;;;7.70;99.90;;;;;;7392552;19;20050;-49
2022/11/25 02:20:11;;;;;;;15.25;6.03;;;7.60;99.90;;;;;;7393453;19;20112;-47
2022/11/25 02:22:57;;;;;;;12.70;5.25;;;7.70;99.90;;;;;;7395162;19;20021;-47
2022/11/25 02:25:25;;;;;;;16.98;5.40;;;7.70;99.90;;;;;;7391698;19;20024;-45
2022/11/25 02:28:03;;;;;;;22.90;6.85;;;7.60;99.90;;;;;;7393682;19;20010;-47
2022/11/25 02:30:30;;;;;;;18.77;6.03;;;7.60;99.90;;;;;;7392587;19;20011;-48
2022/11/25 02:32:58;;;;;;;13.75;5.57;;;7.60;99.90;;;;;;7393498;19;20015;-45
2022/11/25 02:35:33;;;;;;;21.13;6.00;;;7.60;99.90;;;;;;7391204;19;20022;-48
2022/11/25 02:38:17;;;;;;;15.65;5.45;;;7.60;99.90;;;;;;7390172;19;20381;-47
2022/11/25 02:40:53;;;;;;;22.10;5.55;;;7.60;99.90;;;;;;7388526;19;20014;-49
2022/11/25 02:43:20;;;;;;;22.75;6.25;;;7.60;99.90;;;;;;7389302;19;20042;-49
2022/11/25 02:45:55;;;;;;;17.00;5.65;;;7.60;99.90;;;;;;7383537;19;20044;-49
2022/11/25 02:48:23;;;;;;;19.55;6.32;;;7.60;99.90;;;;;;7385019;19;20655;-46
2022/11/25 02:50:49;;;;;;;16.10;6.22;;;7.60;99.90;;;;;;7383468;19;20021;-48
2022/11/25 02:53:16;;;;;;;19.55;6.72;;;7.70;99.90;;;;;;7386255;19;20442;-46
2022/11/25 02:55:42;;;;;;;16.10;6.25;;;7.70;99.90;;;;;;7383831;19;20379;-47
2022/11/25 02:58:09;;;;;;;19.77;6.45;;;7.70;99.90;;;;;;7384274;19;20046;-44
2022/11/25 03:00:35;;;;;;;18.50;6.97;;;7.70;99.90;;;;;;7385951;19;20027;-44
2022/11/25 03:03:01;;;;;;;20.83;6.93;;;7.80;99.90;;;;;;7381969;19;20391;-48
2022/11/25 03:05:28;;;;;;;18.33;6.68;;;7.70;99.90;;;;;;7381315;19;20022;-44
2022/11/25 03:07:54;;;;;;;18.02;6.72;;;7.80;99.90;;;;;;7385378;19;20035;-45
2022/11/25 03:10:21;;;;;;;21.73;6.93;;;7.80;99.90;;;;;;7381746;19;20014;-44
2022/11/25 03:12:48;;;;;;;19.23;6.78;;;7.80;99.90;;;;;;7382800;19;20014;-44
2022/11/25 03:15:14;;;;;;;23.67;6.80;;;7.80;99.90;;;;;;7381711;19;20035;-45
2022/11/25 03:17:41;;;;;;;21.35;6.95;;;7.80;99.90;;;;;;7380285;19;20017;-46
2022/11/25 03:20:09;;;;;;;20.92;6.50;;;7.90;99.90;;;;;;7381861;19;20018;-47
2022/11/25 03:22:35;;;;;;;21.65;7.80;;;7.90;99.90;;;;;;7381012;19;20025;-44
2022/11/25 03:25:04;;;;;;;16.73;7.95;;;7.90;99.90;;;;;;7381054;19;20026;-48
2022/11/25 03:27:32;;;;;;;15.95;6.90;;;7.80;99.90;;;;;;7378011;19;20019;-44
2022/11/25 03:29:59;;;;;;;22.80;6.95;;;7.90;99.90;;;;;;7379402;19;20014;-46
2022/11/25 03:32:26;;;;;;;24.75;6.97;;;7.90;99.90;;;;;;7379012;19;20453;-45
2022/11/25 03:34:52;;;;;;;17.73;6.68;;;7.90;99.90;;;;;;7381431;19;20015;-45
2022/11/25 03:37:18;;;;;;;28.90;8.40;;;7.90;99.90;;;;;;7380534;19;20015;-47
2022/11/25 03:39:45;;;;;;;21.60;7.53;;;7.90;99.90;;;;;;7378891;19;20829;-44
2022/11/25 03:42:11;;;;;;;18.40;6.70;;;7.90;99.90;;;;;;7381096;19;20028;-44
2022/11/25 03:44:38;;;;;;;20.63;7.28;;;8.00;99.90;;;;;;7377981;19;20041;-45
2022/11/25 03:47:04;;;;;;;19.05;7.10;;;7.90;99.90;;;;;;7374310;19;20019;-44
2022/11/25 03:49:33;;;;;;;23.42;6.88;;;7.90;99.90;;;;;;7373882;19;20038;-49
2022/11/25 03:51:59;;;;;;;15.85;6.50;;;8.00;99.90;;;;;;7379080;19;20026;-45
2022/11/25 03:54:26;;;;;;;15.38;6.43;;;7.90;99.90;;;;;;7375757;19;20609;-44
2022/11/25 03:57:11;;;;;;;19.60;8.07;;;8.00;99.90;;;;;;7374644;19;20034;-47
2022/11/25 03:59:37;;;;;;;14.30;6.68;;;8.00;99.90;;;;;;7378404;19;20093;-45
2022/11/25 04:02:03;;;;;;;16.95;6.90;;;8.00;99.90;;;;;;7380153;19;20077;-46
2022/11/25 04:04:30;;;;;;;17.15;6.28;;;8.00;99.90;;;;;;7375104;19;20022;-45
2022/11/25 04:06:56;;;;;;;20.65;6.78;;;8.00;99.90;;;;;;7377749;19;20465;-46
2022/11/25 04:09:24;;;;;;;15.68;6.47;;;8.00;99.90;;;;;;7377548;19;20021;-45
2022/11/25 04:14:47;;;;;;;17.70;6.65;;;8.00;99.90;;;;;;7375010;19;20453;-46
2022/11/25 04:17:13;;;;;;;19.42;6.65;;;8.00;99.90;;;;;;7375844;19;20014;-45
2022/11/25 04:19:39;;;;;;;22.45;7.70;;;8.00;99.90;;;;;;7375313;19;20466;-44
2022/11/25 04:22:06;;;;;;;19.65;7.22;;;8.00;99.90;;;;;;7376268;19;20533;-45
2022/11/25 04:24:35;;;;;;;20.42;7.40;;;8.00;99.90;;;;;;7376638;19;20041;-44
2022/11/25 04:27:03;;;;;;;17.00;7.22;;;8.00;99.90;;;;;;7374564;19;20014;-48
2022/11/25 04:29:30;;;;;;;22.92;7.15;;;8.00;99.90;;;;;;7377903;19;20522;-46
2022/11/25 04:31:59;;;;;;;18.20;7.70;;;8.10;99.90;;;;;;7378987;19;20458;-45
2022/11/25 04:34:26;;;;;;;22.63;7.78;;;8.10;99.90;;;;;;7374091;19;20023;-45
2022/11/25 04:36:53;;;;;;;18.73;8.15;;;8.10;99.90;;;;;;7373087;19;20010;-46
2022/11/25 04:39:19;;;;;;;18.92;8.15;;;8.10;99.90;;;;;;7375335;19;20556;-46
2022/11/25 04:41:45;;;;;;;21.77;8.23;;;8.10;99.90;;;;;;7375861;19;20022;-44
2022/11/25 04:44:13;;;;;;;18.75;8.45;;;8.10;99.90;;;;;;7377330;19;20018;-49
2022/11/25 04:46:41;;;;;;;20.60;8.75;;;8.10;99.90;;;;;;7369622;19;20018;-47
2022/11/25 04:49:08;;;;;;;20.98;7.63;;;8.10;99.90;;;;;;7368498;19;20041;-48
2022/11/25 04:51:35;;;;;;;22.77;8.65;;;8.00;99.90;;;;;;7369205;19;20035;-49
2022/11/25 04:54:03;;;;;;;27.35;9.55;;;8.00;99.90;;;;;;7371797;19;20044;-48
2022/11/25 04:56:31;;;;;;;23.33;9.38;;;8.00;99.90;;;;;;7369216;19;20018;-47
2022/11/25 04:59:40;;;;;;;25.90;9.48;;;8.00;99.90;;;;;;7367983;19;20100;-47
2022/11/25 05:01:47;;;;;;;19.75;8.90;;;8.10;99.90;;;;;;7367791;19;20018;-47
2022/11/25 05:04:23;;;;;;;21.73;9.82;;;8.00;99.90;;;;;;7367585;19;20025;-45
2022/11/25 05:06:50;;;;;;;23.33;9.02;;;8.00;99.90;;;;;;7368504;19;20010;-46
2022/11/25 05:09:17;;;;;;;22.38;9.23;;;8.10;99.90;;;;;;7368545;19;20019;-49
2022/11/25 05:11:48;;;;;;;20.38;9.18;;;8.00;99.90;;;;;;7365783;19;20021;-45
2022/11/25 05:14:14;;;;;;;23.23;9.52;;;8.00;99.90;;;;;;7371342;19;20460;-46
2022/11/25 05:16:41;;;;;;;25.00;10.55;;;8.10;99.90;;;;;;7370756;19;20511;-45
2022/11/25 05:19:08;;;;;;;19.38;9.98;;;8.10;99.90;;;;;;7365397;19;20391;-48
2022/11/25 05:21:35;;;;;;;20.58;10.00;;;8.00;99.90;;;;;;7368603;19;20486;-47
2022/11/25 05:24:01;;;;;;;21.45;9.32;;;8.00;99.90;;;;;;7370952;19;20019;-44
2022/11/25 05:26:29;;;;;;;27.63;9.68;;;8.00;99.90;;;;;;7370209;19;20149;-48
2022/11/25 05:28:58;;;;;;;21.05;10.27;;;8.00;99.90;;;;;;7374537;19;20018;-48
2022/11/25 05:31:24;;;;;;;20.77;10.02;;;8.00;99.90;;;;;;7374028;19;20037;-44
2022/11/25 05:33:51;;;;;;;25.15;10.98;;;8.00;99.90;;;;;;7376127;19;20519;-48
2022/11/25 05:36:18;;;;;;;22.45;10.77;;;8.00;99.90;;;;;;7378292;19;20010;-49
2022/11/25 05:38:47;;;;;;;24.15;10.15;;;8.00;99.90;;;;;;7376481;19;20030;-47
2022/11/25 05:41:19;;;;;;;23.10;11.02;;;8.10;99.90;;;;;;7374813;19;20018;-48
2022/11/25 05:43:46;;;;;;;28.60;11.15;;;8.00;99.90;;;;;;7370976;19;20025;-46
2022/11/25 05:46:12;;;;;;;20.20;10.65;;;8.00;99.90;;;;;;7375552;19;20497;-48
2022/11/25 05:48:45;;;;;;;29.15;11.90;;;8.10;99.90;;;;;;7378828;19;20015;-45
2022/11/25 05:51:12;;;;;;;24.60;10.40;;;8.00;99.90;;;;;;7379751;19;20641;-45
2022/11/25 05:53:39;;;;;;;33.25;11.30;;;8.00;99.90;;;;;;7382851;19;20086;-46
2022/11/25 05:56:06;;;;;;;20.92;10.32;;;8.10;99.90;;;;;;7380317;19;20023;-45
2022/11/25 05:58:53;;;;;;;22.90;10.52;;;8.10;99.90;;;;;;7381303;19;20486;-44
2022/11/25 06:01:22;;;;;;;23.30;11.07;;;8.10;99.90;;;;;;7378927;19;20026;-48
2022/11/25 06:03:48;;;;;;;23.92;10.88;;;8.10;99.90;;;;;;7381220;19;20644;-45
2022/11/25 06:06:16;;;;;;;22.30;8.55;;;8.10;99.90;;;;;;7381260;19;20359;-46
2022/11/25 06:08:43;;;;;;;21.73;9.57;;;8.10;99.90;;;;;;7381920;19;20441;-48
2022/11/25 06:11:13;;;;;;;23.92;10.27;;;8.10;99.90;;;;;;7381917;19;20019;-49
2022/11/25 06:13:42;;;;;;;23.15;9.88;;;8.20;99.90;;;;;;7379636;19;20091;-49
2022/11/25 06:16:10;;;;;;;29.00;10.95;;;8.10;99.90;;;;;;7381233;19;20024;-44
2022/11/25 06:18:37;;;;;;;20.40;9.02;;;8.20;99.90;;;;;;7373250;19;20014;-46
2022/11/25 06:21:07;;;;;;;24.92;9.45;;;8.20;99.90;;;;;;7370168;19;20469;-45
2022/11/25 06:23:35;;;;;;;22.92;9.30;;;8.20;99.90;;;;;;7374121;19;20486;-45
2022/11/25 06:26:07;;;;;;;23.90;9.18;;;8.20;99.90;;;;;;7379574;19;20022;-45
2022/11/25 06:28:35;;;;;;;13.95;8.45;;;8.20;99.90;;;;;;7375734;19;20018;-45
2022/11/25 06:31:13;;;;;;;17.52;7.85;;;8.20;99.90;;;;;;7382748;19;20026;-44
2022/11/25 06:33:49;;;;;;;18.60;9.20;;;8.20;99.90;;;;;;7377222;19;20612;-46
2022/11/25 06:36:18;;;;;;;20.63;7.88;;;8.20;99.90;;;;;;7380424;19;20510;-44
2022/11/25 06:38:50;;;;;;;17.48;7.80;;;8.20;99.90;;;;;;7382709;19;20014;-44
2022/11/25 06:41:16;;;;;;;;;;;8.20;99.90;;;;;;7383558;19;20482;-43
2022/11/25 06:43:42;;;;;;;20.48;7.93;;;8.20;99.90;;;;;;7384589;19;19982;-44
2022/11/25 06:46:11;;;;;;;15.55;6.95;;;8.20;99.90;;;;;;7379944;19;20053;-44
2022/11/25 06:48:38;;;;;;;17.48;7.18;;;8.20;99.90;;;;;;7384101;19;20095;-47
2022/11/25 06:51:09;;;;;;;22.05;7.18;;;8.20;99.90;;;;;;7382855;19;20366;-48
2022/11/25 06:53:35;;;;;;;19.40;7.33;;;8.20;99.90;;;;;;7380524;19;20021;-45
2022/11/25 06:56:07;;;;;;;21.63;7.05;;;8.20;99.90;;;;;;7380164;19;20014;-45
2022/11/25 06:58:34;;;;;;;12.50;6.95;;;8.20;99.90;;;;;;7378503;19;20512;-45
2022/11/25 07:01:22;;;;;;;11.93;6.55;;;8.30;99.90;;;;;;7381197;19;20019;-44
2022/11/25 07:03:51;;;;;;;19.65;7.47;;;8.20;99.90;;;;;;7381705;19;20828;-44
2022/11/25 07:06:18;;;;;;;17.92;5.88;;;8.20;99.90;;;;;;7378159;19;20023;-46
2022/11/25 07:08:46;;;;;;;17.08;6.68;;;8.20;99.90;;;;;;7381509;19;20134;-45
2022/11/25 07:11:17;;;;;;;17.77;6.20;;;8.10;99.90;;;;;;7380354;19;20018;-45
2022/11/25 07:13:43;;;;;;;15.35;6.28;;;8.10;99.90;;;;;;7378879;19;20014;-44
2022/11/25 07:16:11;;;;;;;16.50;5.90;;;8.10;99.90;;;;;;7373582;19;20032;-45
2022/11/25 07:18:39;;;;;;;13.02;4.80;;;7.90;99.90;;;;;;7377049;19;20037;-45
2022/11/25 07:21:20;;;;;;;11.40;5.03;;;7.90;99.90;;;;;;7374264;19;20026;-45
2022/11/25 07:23:47;;;;;;;19.42;6.35;;;7.90;99.90;;;;;;7378332;19;20415;-45
2022/11/25 07:26:20;;;;;;;14.15;5.20;;;7.80;99.90;;;;;;7376321;19;20151;-44
2022/11/25 07:28:47;;;;;;;15.90;5.43;;;7.80;99.90;;;;;;7381652;19;20022;-44
2022/11/25 07:31:24;;;;;;;13.98;4.63;;;7.70;99.90;;;;;;7377324;19;20021;-44
2022/11/25 07:33:52;;;;;;;26.50;12.23;;;7.70;99.90;;;;;;7369640;19;20023;-46
2022/11/25 07:36:19;;;;;;;16.77;5.38;;;7.60;99.90;;;;;;7373084;19;20074;-45
2022/11/25 07:38:45;;;;;;;13.10;5.40;;;7.60;99.90;;;;;;7366533;19;20026;-45
2022/11/25 07:41:17;;;;;;;10.93;4.63;;;7.50;99.90;;;;;;7368647;19;20019;-47
2022/11/25 07:43:49;;;;;;;11.07;4.72;;;7.50;99.90;;;;;;7371562;19;20497;-45
2022/11/25 07:46:21;;;;;;;14.77;5.38;;;7.40;99.90;;;;;;7369804;19;20913;-44
2022/11/25 07:48:48;;;;;;;13.35;4.68;;;7.40;99.90;;;;;;7371637;19;20111;-44
2022/11/25 07:51:19;;;;;;;11.57;4.70;;;7.40;99.90;;;;;;7373380;19;20131;-46
2022/11/25 07:53:47;;;;;;;23.33;6.03;;;7.40;99.90;;;;;;7368334;19;20025;-45
2022/11/25 07:56:15;;;;;;;17.73;6.07;;;7.40;99.90;;;;;;7367074;19;20357;-44
2022/11/25 07:58:41;;;;;;;12.43;5.72;;;7.40;99.90;;;;;;7368521;19;20018;-45
2022/11/25 08:01:10;;;;;;;13.70;4.88;;;7.40;99.90;;;;;;7366313;19;20662;-48
2022/11/25 08:03:38;;;;;;;11.07;5.18;;;7.40;99.90;;;;;;7365839;19;20106;-48
2022/11/25 08:06:09;;;;;;;16.38;5.40;;;7.40;99.90;;;;;;7367435;19;20010;-45
2022/11/25 08:08:37;;;;;;;12.18;5.47;;;7.50;99.90;;;;;;7374499;19;20536;-47
2022/11/25 08:11:23;;;;;;;12.45;5.07;;;7.50;99.90;;;;;;7378156;19;21711;-45
2022/11/25 08:13:50;;;;;;;13.48;5.53;;;7.50;99.90;;;;;;7377476;19;20018;-47
2022/11/25 08:16:18;;;;;;;16.50;5.35;;;7.50;99.90;;;;;;7371668;19;20022;-45
2022/11/25 08:18:45;;;;;;;16.10;5.63;;;7.60;99.90;;;;;;7367349;19;20023;-45
2022/11/25 08:21:13;;;;;;;15.25;5.97;;;7.70;99.90;;;;;;7369655;19;20022;-44
2022/11/25 08:23:47;;;;;;;13.32;5.88;;;7.70;99.90;;;;;;7369346;19;20112;-46
2022/11/25 08:26:17;;;;;;;15.98;5.90;;;7.70;99.90;;;;;;7370732;19;20037;-44
2022/11/25 08:28:44;;;;;;;14.65;6.50;;;7.90;99.90;;;;;;7367749;19;20019;-45
2022/11/25 08:31:14;;;;;;;16.17;6.03;;;8.00;99.90;;;;;;7367533;19;20581;-46
2022/11/25 08:33:41;;;;;;;15.77;5.78;;;8.20;99.90;;;;;;7364783;19;20372;-44
2022/11/25 08:36:08;;;;;;;12.13;6.28;;;8.30;99.90;;;;;;7366033;19;20022;-45
2022/11/25 08:38:35;;;;;;;13.30;6.47;;;8.40;99.90;;;;;;7371135;19;20024;-47
2022/11/25 08:41:02;;;;;;;10.90;4.93;;;8.40;99.90;;;;;;7368951;19;20014;-45
2022/11/25 08:43:28;;;;;;;8.85;5.28;;;8.50;99.90;;;;;;7368003;19;20788;-45
2022/11/25 08:45:54;;;;;;;11.07;5.35;;;8.70;99.90;;;;;;7371926;19;20022;-46
2022/11/25 08:48:21;;;;;;;11.90;5.60;;;8.70;99.90;;;;;;7375473;19;20018;-45
2022/11/25 08:50:53;;;;;;;11.77;5.43;;;8.80;99.90;;;;;;7375806;19;20085;-46
2022/11/25 08:53:20;;;;;;;11.73;5.43;;;8.90;99.90;;;;;;7377408;19;20074;-48
2022/11/25 08:55:47;;;;;;;11.68;6.07;;;9.00;99.90;;;;;;7372360;19;20010;-45
2022/11/25 08:58:13;;;;;;;8.90;5.45;;;9.10;99.90;;;;;;7375928;19;20014;-47
2022/11/25 09:00:40;;;;;;;16.17;5.88;;;9.20;99.90;;;;;;7371291;19;20026;-45
2022/11/25 09:03:07;;;;;;;11.40;5.95;;;9.30;99.90;;;;;;7377196;19;20367;-47
2022/11/25 09:05:37;;;;;;;11.57;5.60;;;9.20;99.90;;;;;;7374046;19;20106;-46
2022/11/25 09:08:04;;;;;;;10.27;5.70;;;9.20;99.90;;;;;;7375391;19;20021;-47
2022/11/25 09:10:33;;;;;;;11.52;4.97;;;9.20;99.90;;;;;;7373990;19;20784;-45
2022/11/25 09:12:59;;;;;;;11.68;5.85;;;9.20;99.90;;;;;;7375189;19;20023;-44
2022/11/25 09:15:26;;;;;;;12.65;7.00;;;9.20;99.90;;;;;;7373113;19;20010;-47
2022/11/25 09:18:05;;;;;;;13.70;5.72;;;9.20;99.90;;;;;;7373110;19;20018;-45
2022/11/25 09:20:32;;;;;;;15.60;6.65;;;9.20;99.90;;;;;;7372600;19;20030;-47
2022/11/25 09:22:59;;;;;;;11.45;6.45;;;9.20;99.90;;;;;;7378877;19;20033;-47
2022/11/25 09:25:26;;;;;;;12.70;6.65;;;9.20;99.90;;;;;;7378278;19;20014;-46
2022/11/25 09:27:53;;;;;;;12.30;5.57;;;9.20;99.90;;;;;;7379065;19;20022;-46
2022/11/25 09:30:19;;;;;;;9.68;5.38;;;9.20;99.90;;;;;;7377644;19;20025;-45
2022/11/25 09:32:49;;;;;;;10.07;6.05;;;9.40;99.90;;;;;;7379456;19;20027;-44
2022/11/25 09:35:15;;;;;;;10.23;5.22;;;9.60;99.90;;;;;;7380708;19;20023;-44
2022/11/25 09:37:42;;;;;;;14.65;5.60;;;9.80;99.90;;;;;;7373183;19;20024;-49
2022/11/25 09:40:24;;;;;;;10.40;4.50;;;9.90;99.90;;;;;;7382738;19;20057;-48
2022/11/25 09:49:21;;;;;;;10.23;4.35;;;10.10;99.90;;;;;;7379922;19;20046;-47
2022/11/25 09:52:08;;;;;;;9.77;5.00;;;10.00;99.90;;;;;;7383318;19;20010;-43
2022/11/25 09:54:38;;;;;;;61.88;46.75;;;10.00;99.90;;;;;;7377781;19;20023;-46
2022/11/25 09:57:26;;;;;;;16.50;11.93;;;10.00;99.90;;;;;;7381014;19;20027;-47
2022/11/25 10:00:11;;;;;;;21.35;12.23;;;10.00;99.90;;;;;;7379706;19;20022;-45
2022/11/25 10:02:58;;;;;;;79.10;56.88;;;9.90;99.90;;;;;;7378942;19;20022;-48
2022/11/25 10:05:31;;;;;;;12.23;5.10;;;10.00;99.90;;;;;;7381524;19;20042;-48
2022/11/25 10:08:07;;;;;;;10.40;4.60;;;9.90;99.90;;;;;;7385469;19;20342;-46
2022/11/25 10:11:12;;;;;;;9.90;4.57;;;10.00;99.90;;;;;;7381228;19;20074;-45
2022/11/25 10:13:57;;;;;;;11.13;5.07;;;10.00;99.90;;;;;;7380547;19;20023;-46
2022/11/25 10:16:57;;;;;;;13.65;4.55;;;10.20;99.90;;;;;;7384664;19;20014;-53
2022/11/25 10:19:48;;;;;;;8.10;3.95;;;10.30;99.90;;;;;;7378029;19;20018;-46
2022/11/25 10:22:45;;;;;;;7.85;3.85;;;10.40;99.90;;;;;;7380588;19;20037;-43
2022/11/25 10:25:13;;;;;;;8.50;4.65;;;10.30;99.90;;;;;;7379161;19;20403;-45
2022/11/25 10:28:02;;;;;;;10.30;4.32;;;10.20;99.90;;;;;;7373743;19;20070;-44
2022/11/25 10:30:43;;;;;;;9.73;4.03;;;10.20;99.90;;;;;;7378395;19;20019;-46
2022/11/25 10:33:19;;;;;;;8.27;4.63;;;10.30;99.90;;;;;;7376630;19;20031;-47
2022/11/25 10:35:58;;;;;;;11.43;4.13;;;10.30;99.90;;;;;;7383812;19;20021;-50
2022/11/25 10:38:26;;;;;;;11.63;3.65;;;10.30;99.90;;;;;;7381736;19;20369;-49
2022/11/25 10:40:54;;;;;;;11.63;4.53;;;10.40;99.90;;;;;;7383524;19;20563;-47
2022/11/25 10:43:21;;;;;;;5.75;3.42;;;10.60;99.90;;;;;;7362050;19;20030;-48
2022/11/25 10:46:19;;;;;;;9.48;3.78;;;11.20;99.90;;;;;;7369843;19;20378;-45
2022/11/25 10:49:04;;;;;;;9.80;3.65;;;11.90;99.90;;;;;;7369806;19;20536;-47
2022/11/25 10:51:47;;;;;;;9.40;3.75;;;12.50;99.90;;;;;;7377272;19;20018;-44
2022/11/25 10:54:21;;;;;;;9.23;3.63;;;12.80;99.90;;;;;;7374979;19;20018;-49
2022/11/25 10:56:52;;;;;;;8.10;3.30;;;12.60;99.90;;;;;;7379693;19;20742;-47
2022/11/25 10:59:38;;;;;;;9.35;3.53;;;12.40;99.90;;;;;;7379747;19;20492;-48
2022/11/25 11:02:28;;;;;;;9.07;2.90;;;12.10;99.90;;;;;;7379486;19;20022;-46
2022/11/25 11:05:09;;;;;;;7.57;3.05;;;11.80;99.90;;;;;;7378022;19;20394;-46
2022/11/25 11:07:39;;;;;;;8.55;3.38;;;11.60;99.90;;;;;;7380280;19;20014;-47
2022/11/25 11:10:25;;;;;;;7.60;3.10;;;11.60;99.90;;;;;;7378445;19;20605;-50
2022/11/25 11:12:59;;;;;;;11.52;3.42;;;11.50;99.90;;;;;;7381905;19;20373;-45
2022/11/25 11:15:46;;;;;;;10.25;3.20;;;11.40;99.90;;;;;;7383533;19;20492;-47
2022/11/25 11:18:37;;;;;;;8.95;2.28;;;11.40;99.90;;;;;;7377792;19;21061;-47
2022/11/25 11:21:07;;;;;;;7.50;2.25;;;11.30;99.90;;;;;;7382084;19;20113;-46
2022/11/25 11:23:48;;;;;;;10.38;3.63;;;11.40;99.90;;;;;;7379402;19;20039;-47
2022/11/25 11:26:29;;;;;;;9.80;3.07;;;11.50;99.90;;;;;;7377951;19;20029;-49
2022/11/25 11:29:01;;;;;;;8.57;3.13;;;11.80;99.90;;;;;;7374754;19;20014;-47
2022/11/25 11:31:38;;;;;;;7.35;2.72;;;12.20;99.90;;;;;;7373663;19;20022;-46
2022/11/25 11:34:34;;;;;;;9.88;2.63;;;12.90;99.90;;;;;;7377978;19;20489;-46
2022/11/25 11:37:16;;;;;;;8.15;2.30;;;13.00;99.90;;;;;;7378499;19;20035;-50
2022/11/25 11:39:53;;;;;;;;;;;13.30;99.90;;;;;;7377348;19;20068;-46
2022/11/25 11:42:32;;;;;;;6.47;2.22;;;13.90;99.90;;;;;;7381869;19;19935;-47
2022/11/25 11:45:23;;;;;;;7.47;3.28;;;14.20;99.90;;;;;;7378437;19;20014;-49
2022/11/25 11:48:11;;;;;;;8.48;3.10;;;14.10;99.90;;;;;;7379770;19;20014;-51
2022/11/25 11:50:52;;;;;;;6.63;2.20;;;14.20;99.90;;;;;;7376771;19;20045;-46
2022/11/25 11:53:30;;;;;;;8.75;2.40;;;14.80;99.90;;;;;;7378623;19;20399;-50
2022/11/25 11:56:35;;;;;;;8.20;2.53;;;14.70;99.90;;;;;;7380547;19;20022;-49
2022/11/25 11:59:19;;;;;;;9.90;2.67;;;14.90;99.90;;;;;;7375262;19;20017;-47
2022/11/25 12:02:13;;;;;;;7.70;2.22;;;14.90;99.90;;;;;;7375875;19;20018;-46
2022/11/25 12:05:01;;;;;;;7.72;2.20;;;15.10;99.90;;;;;;7378959;19;20373;-48
2022/11/25 12:07:48;;;;;;;9.25;2.28;;;15.50;99.90;;;;;;7377625;19;20457;-49
2022/11/25 12:10:18;;;;;;;9.25;2.60;;;15.50;99.90;;;;;;7374000;19;20015;-48
2022/11/25 12:13:15;;;;;;;8.25;2.70;;;14.80;99.90;;;;;;7375605;19;20584;-45
2022/11/25 12:15:53;;;;;;;6.03;2.33;;;14.10;99.90;;;;;;7378463;19;20074;-47
2022/11/25 12:18:35;;;;;;;8.73;3.05;;;13.70;99.90;;;;;;7378509;19;20015;-47
2022/11/25 12:21:09;;;;;;;8.75;3.15;;;13.00;99.90;;;;;;7376893;19;20078;-48
2022/11/25 12:23:55;;;;;;;8.27;2.17;;;12.70;99.90;;;;;;7380620;19;20086;-45
2022/11/25 12:26:50;;;;;;;6.75;2.20;;;12.50;99.90;;;;;;7376362;19;20023;-48
2022/11/25 12:29:40;;;;;;;8.75;3.33;;;12.20;99.90;;;;;;7379067;19;20351;-45
2022/11/25 12:32:51;;;;;;;9.95;2.72;;;12.00;99.90;;;;;;7375925;19;20025;-46
2022/11/25 12:35:40;;;;;;;7.53;2.78;;;11.70;99.90;;;;;;7375541;19;20022;-45
2022/11/25 12:38:25;;;;;;;9.15;2.97;;;11.60;99.90;;;;;;7378667;19;20090;-45
2022/11/25 12:41:11;;;;;;;9.38;2.92;;;11.60;99.90;;;;;;7376828;19;20029;-49
2022/11/25 12:44:04;;;;;;;8.90;3.22;;;11.50;99.90;;;;;;7374398;19;20086;-48
2022/11/25 12:46:51;;;;;;;11.10;3.45;;;11.50;99.90;;;;;;7373186;19;20010;-46
2022/11/25 12:49:28;;;;;;;9.80;3.03;;;11.60;99.90;;;;;;7377830;19;20481;-46
2022/11/25 12:52:03;;;;;;;10.07;2.65;;;11.80;99.90;;;;;;7378482;19;20045;-50
2022/11/25 12:54:29;;;;;;;13.80;3.35;;;12.50;99.90;;;;;;7374528;19;20468;-46
2022/11/25 12:57:12;;;;;;;12.00;2.83;;;13.10;99.90;;;;;;7374832;19;20521;-45
2022/11/25 12:59:50;;;;;;;10.20;3.67;;;14.10;99.90;;;;;;7372903;19;20018;-45
2022/11/25 13:02:34;;;;;;;10.13;3.15;;;14.60;99.90;;;;;;7374415;19;20026;-45
2022/11/25 13:05:06;;;;;;;9.98;2.70;;;14.80;99.90;;;;;;7372461;19;20775;-46
2022/11/25 13:07:37;;;;;;;13.20;2.90;;;14.60;99.90;;;;;;7374969;19;20011;-45
2022/11/25 13:10:21;;;;;;;11.75;3.80;;;14.90;99.90;;;;;;7376765;19;20943;-48
2022/11/25 13:12:59;;;;;;;9.68;2.60;;;15.30;99.90;;;;;;7375504;19;20042;-45
2022/11/25 13:15:36;;;;;;;11.70;2.55;;;14.40;99.90;;;;;;7375885;19;20491;-48
2022/11/25 13:18:11;;;;;;;9.77;3.03;;;14.20;99.90;;;;;;7373393;19;20393;-47
2022/11/25 13:20:47;;;;;;;9.80;2.75;;;14.20;99.90;;;;;;7376608;19;20777;-46
2022/11/25 13:23:16;;;;;;;11.52;3.13;;;14.70;99.90;;;;;;7372267;19;20035;-45
2022/11/25 13:25:46;;;;;;;9.43;2.92;;;15.00;99.90;;;;;;7368016;19;20019;-43